sensor_id;sensor_type;location;lat;lon;timestamp;P1;durP1;ratioP1;P2;durP2;ratioP2
31091;SDS011;67728;53.122;12.776;2024-03-17T00:00:07;927.70;;;437.50;;
31091;SDS011;67728;53.122;12.776;2024-03-17T00:01:44;928.90;;;438.73;;
31091;SDS011;67728;53.122;12.776;2024-03-17T00:03:15;930.67;;;438.07;;
31091;SDS011;67728;53.122;12.776;2024-03-17T00:04:47;931.33;;;440.50;;
31091;SDS011;67728;53.122;12.776;2024-03-17T00:06:17;927.67;;;433.00;;
31091;SDS011;67728;53.122;12.776;2024-03-17T00:07:49;936.63;;;440.70;;
31091;SDS011;67728;53.122;12.776;2024-03-17T00:09:20;929.97;;;446.53;;
31091;SDS011;67728;53.122;12.776;2024-03-17T00:10:51;929.83;;;443.30;;
31091;SDS011;67728;53.122;12.776;2024-03-17T00:12:22;927.10;;;444.03;;
31091;SDS011;67728;53.122;12.776;2024-03-17T00:13:55;927.73;;;439.60;;
31091;SDS011;67728;53.122;12.776;2024-03-17T00:15:26;930.27;;;441.80;;
31091;SDS011;67728;53.122;12.776;2024-03-17T00:16:58;923.23;;;429.30;;
31091;SDS011;67728;53.122;12.776;2024-03-17T00:18:29;929.10;;;441.23;;
31091;SDS011;67728;53.122;12.776;2024-03-17T00:20:00;929.67;;;439.00;;
31091;SDS011;67728;53.122;12.776;2024-03-17T00:21:38;954.73;;;439.30;;
31091;SDS011;67728;53.122;12.776;2024-03-17T00:23:10;929.07;;;436.30;;
31091;SDS011;67728;53.122;12.776;2024-03-17T00:24:42;941.77;;;442.03;;
31091;SDS011;67728;53.122;12.776;2024-03-17T00:26:13;942.23;;;437.50;;
31091;SDS011;67728;53.122;12.776;2024-03-17T00:27:44;944.97;;;445.73;;
31091;SDS011;67728;53.122;12.776;2024-03-17T00:29:19;917.73;;;425.63;;
31091;SDS011;67728;53.122;12.776;2024-03-17T00:30:50;926.67;;;443.40;;
31091;SDS011;67728;53.122;12.776;2024-03-17T00:32:20;937.93;;;452.67;;
31091;SDS011;67728;53.122;12.776;2024-03-17T00:33:52;935.97;;;438.30;;
31091;SDS011;67728;53.122;12.776;2024-03-17T00:35:23;927.27;;;437.50;;
31091;SDS011;67728;53.122;12.776;2024-03-17T00:36:54;926.87;;;443.77;;
31091;SDS011;67728;53.122;12.776;2024-03-17T00:38:25;920.70;;;432.20;;
31091;SDS011;67728;53.122;12.776;2024-03-17T00:39:56;922.63;;;439.27;;
31091;SDS011;67728;53.122;12.776;2024-03-17T00:41:28;921.77;;;443.63;;
31091;SDS011;67728;53.122;12.776;2024-03-17T00:42:58;922.07;;;443.33;;
31091;SDS011;67728;53.122;12.776;2024-03-17T00:44:31;930.80;;;452.57;;
31091;SDS011;67728;53.122;12.776;2024-03-17T00:46:02;926.40;;;453.17;;
31091;SDS011;67728;53.122;12.776;2024-03-17T00:47:34;928.93;;;450.00;;
31091;SDS011;67728;53.122;12.776;2024-03-17T00:49:04;927.90;;;448.53;;
31091;SDS011;67728;53.122;12.776;2024-03-17T00:50:36;925.20;;;444.50;;
31091;SDS011;67728;53.122;12.776;2024-03-17T00:52:07;930.03;;;449.83;;
31091;SDS011;67728;53.122;12.776;2024-03-17T00:53:38;932.53;;;446.00;;
31091;SDS011;67728;53.122;12.776;2024-03-17T00:55:09;923.70;;;438.27;;
31091;SDS011;67728;53.122;12.776;2024-03-17T00:56:41;921.07;;;440.90;;
31091;SDS011;67728;53.122;12.776;2024-03-17T00:58:11;924.93;;;448.90;;
31091;SDS011;67728;53.122;12.776;2024-03-17T00:59:43;946.97;;;451.67;;
31091;SDS011;67728;53.122;12.776;2024-03-17T01:01:15;923.00;;;447.07;;
31091;SDS011;67728;53.122;12.776;2024-03-17T01:02:46;931.40;;;449.97;;
31091;SDS011;67728;53.122;12.776;2024-03-17T01:04:16;922.83;;;446.97;;
31091;SDS011;67728;53.122;12.776;2024-03-17T01:05:48;924.97;;;452.37;;
31091;SDS011;67728;53.122;12.776;2024-03-17T01:07:22;926.57;;;448.20;;
31091;SDS011;67728;53.122;12.776;2024-03-17T01:08:53;929.57;;;455.07;;
31091;SDS011;67728;53.122;12.776;2024-03-17T01:10:25;926.63;;;448.90;;
31091;SDS011;67728;53.122;12.776;2024-03-17T01:11:55;931.67;;;444.47;;
31091;SDS011;67728;53.122;12.776;2024-03-17T01:13:27;931.47;;;459.90;;
31091;SDS011;67728;53.122;12.776;2024-03-17T01:14:59;937.20;;;447.30;;
31091;SDS011;67728;53.122;12.776;2024-03-17T01:16:31;926.47;;;440.77;;
31091;SDS011;67728;53.122;12.776;2024-03-17T01:18:02;937.17;;;449.37;;
31091;SDS011;67728;53.122;12.776;2024-03-17T01:19:34;923.83;;;444.67;;
31091;SDS011;67728;53.122;12.776;2024-03-17T01:21:06;919.33;;;440.93;;
31091;SDS011;67728;53.122;12.776;2024-03-17T01:22:37;932.17;;;450.57;;
31091;SDS011;67728;53.122;12.776;2024-03-17T01:24:08;937.93;;;439.30;;
31091;SDS011;67728;53.122;12.776;2024-03-17T01:25:39;922.53;;;434.37;;
31091;SDS011;67728;53.122;12.776;2024-03-17T01:27:11;928.70;;;448.77;;
31091;SDS011;67728;53.122;12.776;2024-03-17T01:28:44;926.53;;;443.40;;
31091;SDS011;67728;53.122;12.776;2024-03-17T01:30:16;942.73;;;453.50;;
31091;SDS011;67728;53.122;12.776;2024-03-17T01:31:49;938.13;;;453.97;;
31091;SDS011;67728;53.122;12.776;2024-03-17T01:33:20;925.07;;;438.60;;
31091;SDS011;67728;53.122;12.776;2024-03-17T01:34:52;949.47;;;451.77;;
31091;SDS011;67728;53.122;12.776;2024-03-17T01:36:23;943.50;;;461.17;;
31091;SDS011;67728;53.122;12.776;2024-03-17T01:37:53;926.27;;;446.17;;
31091;SDS011;67728;53.122;12.776;2024-03-17T01:39:25;929.27;;;452.37;;
31091;SDS011;67728;53.122;12.776;2024-03-17T01:40:55;932.27;;;453.80;;
31091;SDS011;67728;53.122;12.776;2024-03-17T01:42:26;942.90;;;452.83;;
31091;SDS011;67728;53.122;12.776;2024-03-17T01:43:59;932.33;;;450.37;;
31091;SDS011;67728;53.122;12.776;2024-03-17T01:45:31;934.30;;;459.03;;
31091;SDS011;67728;53.122;12.776;2024-03-17T01:47:03;936.07;;;469.73;;
31091;SDS011;67728;53.122;12.776;2024-03-17T01:48:35;938.07;;;468.20;;
31091;SDS011;67728;53.122;12.776;2024-03-17T01:50:06;963.00;;;465.30;;
31091;SDS011;67728;53.122;12.776;2024-03-17T01:51:38;950.10;;;469.10;;
31091;SDS011;67728;53.122;12.776;2024-03-17T01:53:11;944.90;;;466.87;;
31091;SDS011;67728;53.122;12.776;2024-03-17T01:54:44;931.70;;;449.17;;
31091;SDS011;67728;53.122;12.776;2024-03-17T01:56:16;943.27;;;459.77;;
31091;SDS011;67728;53.122;12.776;2024-03-17T01:57:49;940.33;;;465.73;;
31091;SDS011;67728;53.122;12.776;2024-03-17T01:59:20;939.30;;;463.67;;
31091;SDS011;67728;53.122;12.776;2024-03-17T02:00:52;923.87;;;440.83;;
31091;SDS011;67728;53.122;12.776;2024-03-17T02:02:24;949.23;;;460.40;;
31091;SDS011;67728;53.122;12.776;2024-03-17T02:03:55;932.57;;;455.87;;
31091;SDS011;67728;53.122;12.776;2024-03-17T02:05:26;943.87;;;449.77;;
31091;SDS011;67728;53.122;12.776;2024-03-17T02:06:58;927.63;;;444.70;;
31091;SDS011;67728;53.122;12.776;2024-03-17T02:08:29;940.83;;;445.63;;
31091;SDS011;67728;53.122;12.776;2024-03-17T02:10:17;930.57;;;450.03;;
31091;SDS011;67728;53.122;12.776;2024-03-17T02:11:48;932.37;;;441.23;;
31091;SDS011;67728;53.122;12.776;2024-03-17T02:13:20;934.07;;;458.77;;
31091;SDS011;67728;53.122;12.776;2024-03-17T02:14:51;935.47;;;445.47;;
31091;SDS011;67728;53.122;12.776;2024-03-17T02:16:23;946.17;;;448.80;;
31091;SDS011;67728;53.122;12.776;2024-03-17T02:17:55;930.77;;;443.80;;
31091;SDS011;67728;53.122;12.776;2024-03-17T02:19:26;931.90;;;449.67;;
31091;SDS011;67728;53.122;12.776;2024-03-17T02:20:57;939.93;;;447.37;;
31091;SDS011;67728;53.122;12.776;2024-03-17T02:22:30;936.23;;;447.63;;
31091;SDS011;67728;53.122;12.776;2024-03-17T02:24:02;927.50;;;447.10;;
31091;SDS011;67728;53.122;12.776;2024-03-17T02:25:33;925.33;;;438.17;;
31091;SDS011;67728;53.122;12.776;2024-03-17T02:27:03;926.30;;;454.37;;
31091;SDS011;67728;53.122;12.776;2024-03-17T02:28:39;951.00;;;459.33;;
31091;SDS011;67728;53.122;12.776;2024-03-17T02:30:10;942.83;;;460.57;;
31091;SDS011;67728;53.122;12.776;2024-03-17T02:31:42;941.07;;;471.37;;
31091;SDS011;67728;53.122;12.776;2024-03-17T02:33:12;937.00;;;470.13;;
31091;SDS011;67728;53.122;12.776;2024-03-17T02:34:44;954.80;;;465.13;;
31091;SDS011;67728;53.122;12.776;2024-03-17T02:36:15;939.50;;;469.77;;
31091;SDS011;67728;53.122;12.776;2024-03-17T02:37:48;939.90;;;468.90;;
31091;SDS011;67728;53.122;12.776;2024-03-17T02:39:20;940.33;;;472.87;;
31091;SDS011;67728;53.122;12.776;2024-03-17T02:41:06;937.07;;;462.00;;
31091;SDS011;67728;53.122;12.776;2024-03-17T02:42:37;934.00;;;451.73;;
31091;SDS011;67728;53.122;12.776;2024-03-17T02:44:09;930.30;;;447.50;;
31091;SDS011;67728;53.122;12.776;2024-03-17T02:45:42;924.23;;;435.10;;
31091;SDS011;67728;53.122;12.776;2024-03-17T02:47:14;929.37;;;442.80;;
31091;SDS011;67728;53.122;12.776;2024-03-17T02:48:47;928.47;;;446.07;;
31091;SDS011;67728;53.122;12.776;2024-03-17T02:50:20;933.30;;;446.13;;
31091;SDS011;67728;53.122;12.776;2024-03-17T02:51:51;928.63;;;440.43;;
31091;SDS011;67728;53.122;12.776;2024-03-17T02:53:23;925.37;;;441.60;;
31091;SDS011;67728;53.122;12.776;2024-03-17T02:54:55;942.60;;;440.23;;
31091;SDS011;67728;53.122;12.776;2024-03-17T02:56:27;929.97;;;443.73;;
31091;SDS011;67728;53.122;12.776;2024-03-17T02:57:58;934.53;;;442.90;;
31091;SDS011;67728;53.122;12.776;2024-03-17T02:59:29;935.57;;;442.00;;
31091;SDS011;67728;53.122;12.776;2024-03-17T03:01:01;928.40;;;443.00;;
31091;SDS011;67728;53.122;12.776;2024-03-17T03:02:32;939.17;;;446.33;;
31091;SDS011;67728;53.122;12.776;2024-03-17T03:04:03;923.63;;;436.07;;
31091;SDS011;67728;53.122;12.776;2024-03-17T03:05:35;927.87;;;440.07;;
31091;SDS011;67728;53.122;12.776;2024-03-17T03:07:05;945.57;;;442.83;;
31091;SDS011;67728;53.122;12.776;2024-03-17T03:08:39;931.60;;;431.63;;
31091;SDS011;67728;53.122;12.776;2024-03-17T03:10:10;934.37;;;442.93;;
31091;SDS011;67728;53.122;12.776;2024-03-17T03:11:42;928.00;;;439.00;;
31091;SDS011;67728;53.122;12.776;2024-03-17T03:13:12;936.37;;;454.43;;
31091;SDS011;67728;53.122;12.776;2024-03-17T03:14:44;940.30;;;455.43;;
31091;SDS011;67728;53.122;12.776;2024-03-17T03:16:15;943.93;;;459.97;;
31091;SDS011;67728;53.122;12.776;2024-03-17T03:17:48;965.50;;;463.30;;
31091;SDS011;67728;53.122;12.776;2024-03-17T03:19:19;933.73;;;458.50;;
31091;SDS011;67728;53.122;12.776;2024-03-17T03:20:50;934.47;;;452.37;;
31091;SDS011;67728;53.122;12.776;2024-03-17T03:22:22;932.47;;;458.67;;
31091;SDS011;67728;53.122;12.776;2024-03-17T03:23:55;936.37;;;456.53;;
31091;SDS011;67728;53.122;12.776;2024-03-17T03:25:25;954.43;;;462.30;;
31091;SDS011;67728;53.122;12.776;2024-03-17T03:26:57;940.63;;;456.43;;
31091;SDS011;67728;53.122;12.776;2024-03-17T03:28:28;935.90;;;443.37;;
31091;SDS011;67728;53.122;12.776;2024-03-17T03:30:01;923.73;;;431.83;;
31091;SDS011;67728;53.122;12.776;2024-03-17T03:31:34;936.40;;;441.20;;
31091;SDS011;67728;53.122;12.776;2024-03-17T03:33:06;934.57;;;429.37;;
31091;SDS011;67728;53.122;12.776;2024-03-17T03:34:37;936.03;;;440.40;;
31091;SDS011;67728;53.122;12.776;2024-03-17T03:36:09;929.33;;;435.03;;
31091;SDS011;67728;53.122;12.776;2024-03-17T03:37:41;922.93;;;429.40;;
31091;SDS011;67728;53.122;12.776;2024-03-17T03:39:14;935.83;;;434.40;;
31091;SDS011;67728;53.122;12.776;2024-03-17T03:40:46;927.50;;;436.07;;
31091;SDS011;67728;53.122;12.776;2024-03-17T03:42:18;917.40;;;423.63;;
31091;SDS011;67728;53.122;12.776;2024-03-17T03:43:49;931.33;;;436.87;;
31091;SDS011;67728;53.122;12.776;2024-03-17T03:45:20;931.80;;;425.97;;
31091;SDS011;67728;53.122;12.776;2024-03-17T03:46:52;922.23;;;429.10;;
31091;SDS011;67728;53.122;12.776;2024-03-17T03:48:26;928.33;;;437.67;;
31091;SDS011;67728;53.122;12.776;2024-03-17T03:49:58;913.93;;;417.10;;
31091;SDS011;67728;53.122;12.776;2024-03-17T03:51:28;933.67;;;423.37;;
31091;SDS011;67728;53.122;12.776;2024-03-17T03:53:00;914.17;;;414.03;;
31091;SDS011;67728;53.122;12.776;2024-03-17T03:54:33;917.47;;;421.87;;
31091;SDS011;67728;53.122;12.776;2024-03-17T03:56:06;923.23;;;421.87;;
31091;SDS011;67728;53.122;12.776;2024-03-17T03:57:36;909.33;;;407.17;;
31091;SDS011;67728;53.122;12.776;2024-03-17T03:59:08;910.53;;;408.33;;
31091;SDS011;67728;53.122;12.776;2024-03-17T04:00:38;923.77;;;415.20;;
31091;SDS011;67728;53.122;12.776;2024-03-17T04:02:10;926.10;;;420.57;;
31091;SDS011;67728;53.122;12.776;2024-03-17T04:03:41;918.03;;;419.43;;
31091;SDS011;67728;53.122;12.776;2024-03-17T04:05:13;922.40;;;415.57;;
31091;SDS011;67728;53.122;12.776;2024-03-17T04:06:43;916.00;;;410.87;;
31091;SDS011;67728;53.122;12.776;2024-03-17T04:08:15;912.70;;;408.67;;
31091;SDS011;67728;53.122;12.776;2024-03-17T04:09:47;917.33;;;418.00;;
31091;SDS011;67728;53.122;12.776;2024-03-17T04:11:18;927.90;;;420.47;;
31091;SDS011;67728;53.122;12.776;2024-03-17T04:12:49;917.43;;;409.97;;
31091;SDS011;67728;53.122;12.776;2024-03-17T04:14:21;916.43;;;413.87;;
31091;SDS011;67728;53.122;12.776;2024-03-17T04:15:51;915.73;;;409.20;;
31091;SDS011;67728;53.122;12.776;2024-03-17T04:17:26;916.07;;;406.57;;
31091;SDS011;67728;53.122;12.776;2024-03-17T04:18:57;913.17;;;401.07;;
31091;SDS011;67728;53.122;12.776;2024-03-17T04:20:29;919.80;;;405.83;;
31091;SDS011;67728;53.122;12.776;2024-03-17T04:21:59;921.70;;;422.63;;
31091;SDS011;67728;53.122;12.776;2024-03-17T04:23:31;927.03;;;422.30;;
31091;SDS011;67728;53.122;12.776;2024-03-17T04:25:04;922.30;;;431.20;;
31091;SDS011;67728;53.122;12.776;2024-03-17T04:26:36;919.80;;;430.20;;
31091;SDS011;67728;53.122;12.776;2024-03-17T04:28:08;915.83;;;423.73;;
31091;SDS011;67728;53.122;12.776;2024-03-17T04:29:39;935.20;;;419.63;;
31091;SDS011;67728;53.122;12.776;2024-03-17T04:31:11;923.17;;;423.43;;
31091;SDS011;67728;53.122;12.776;2024-03-17T04:32:41;919.73;;;421.03;;
31091;SDS011;67728;53.122;12.776;2024-03-17T04:34:13;915.83;;;419.93;;
31091;SDS011;67728;53.122;12.776;2024-03-17T04:35:44;935.50;;;416.87;;
31091;SDS011;67728;53.122;12.776;2024-03-17T04:37:15;921.70;;;419.60;;
31091;SDS011;67728;53.122;12.776;2024-03-17T04:38:47;920.23;;;410.13;;
31091;SDS011;67728;53.122;12.776;2024-03-17T04:40:20;900.90;;;387.40;;
31091;SDS011;67728;53.122;12.776;2024-03-17T04:41:50;915.63;;;381.33;;
31091;SDS011;67728;53.122;12.776;2024-03-17T04:43:22;899.00;;;383.03;;
31091;SDS011;67728;53.122;12.776;2024-03-17T04:44:53;912.07;;;414.53;;
31091;SDS011;67728;53.122;12.776;2024-03-17T04:46:24;909.63;;;411.63;;
31091;SDS011;67728;53.122;12.776;2024-03-17T04:47:56;924.93;;;409.07;;
31091;SDS011;67728;53.122;12.776;2024-03-17T04:49:27;910.70;;;413.13;;
31091;SDS011;67728;53.122;12.776;2024-03-17T04:50:58;909.20;;;408.60;;
31091;SDS011;67728;53.122;12.776;2024-03-17T04:52:30;920.13;;;415.63;;
31091;SDS011;67728;53.122;12.776;2024-03-17T04:54:01;928.13;;;419.73;;
31091;SDS011;67728;53.122;12.776;2024-03-17T04:55:34;913.70;;;409.57;;
31091;SDS011;67728;53.122;12.776;2024-03-17T04:57:05;911.90;;;409.07;;
31091;SDS011;67728;53.122;12.776;2024-03-17T04:58:37;927.03;;;418.87;;
31091;SDS011;67728;53.122;12.776;2024-03-17T05:00:08;913.90;;;411.23;;
31091;SDS011;67728;53.122;12.776;2024-03-17T05:01:42;903.87;;;387.53;;
31091;SDS011;67728;53.122;12.776;2024-03-17T05:03:13;903.77;;;381.63;;
31091;SDS011;67728;53.122;12.776;2024-03-17T05:04:44;905.50;;;383.67;;
31091;SDS011;67728;53.122;12.776;2024-03-17T05:06:15;902.20;;;392.13;;
31091;SDS011;67728;53.122;12.776;2024-03-17T05:07:47;902.97;;;382.20;;
31091;SDS011;67728;53.122;12.776;2024-03-17T05:09:17;914.20;;;377.77;;
31091;SDS011;67728;53.122;12.776;2024-03-17T05:10:55;917.80;;;385.50;;
31091;SDS011;67728;53.122;12.776;2024-03-17T05:12:26;974.37;;;385.30;;
31091;SDS011;67728;53.122;12.776;2024-03-17T05:13:58;996.57;;;403.80;;
31091;SDS011;67728;53.122;12.776;2024-03-17T05:15:29;1003.27;;;401.33;;
31091;SDS011;67728;53.122;12.776;2024-03-17T05:17:00;904.90;;;392.80;;
31091;SDS011;67728;53.122;12.776;2024-03-17T05:18:31;903.50;;;385.80;;
31091;SDS011;67728;53.122;12.776;2024-03-17T05:20:04;904.17;;;371.83;;
31091;SDS011;67728;53.122;12.776;2024-03-17T05:21:35;910.30;;;394.47;;
31091;SDS011;67728;53.122;12.776;2024-03-17T05:23:07;915.47;;;409.43;;
31091;SDS011;67728;53.122;12.776;2024-03-17T05:24:37;906.50;;;398.60;;
31091;SDS011;67728;53.122;12.776;2024-03-17T05:26:10;935.90;;;412.90;;
31091;SDS011;67728;53.122;12.776;2024-03-17T05:27:41;913.73;;;416.77;;
31091;SDS011;67728;53.122;12.776;2024-03-17T05:29:13;908.77;;;414.47;;
31091;SDS011;67728;53.122;12.776;2024-03-17T05:30:43;914.23;;;418.80;;
31091;SDS011;67728;53.122;12.776;2024-03-17T05:32:15;929.13;;;428.87;;
31091;SDS011;67728;53.122;12.776;2024-03-17T05:33:45;892.77;;;380.03;;
31091;SDS011;67728;53.122;12.776;2024-03-17T05:35:17;898.90;;;387.33;;
31091;SDS011;67728;53.122;12.776;2024-03-17T05:36:48;895.03;;;380.63;;
31091;SDS011;67728;53.122;12.776;2024-03-17T05:38:19;902.10;;;377.80;;
31091;SDS011;67728;53.122;12.776;2024-03-17T05:39:51;889.13;;;375.27;;
31091;SDS011;67728;53.122;12.776;2024-03-17T05:41:24;916.33;;;411.37;;
31091;SDS011;67728;53.122;12.776;2024-03-17T05:42:56;901.17;;;398.80;;
31091;SDS011;67728;53.122;12.776;2024-03-17T05:44:27;911.90;;;417.83;;
31091;SDS011;67728;53.122;12.776;2024-03-17T05:46:00;914.50;;;422.57;;
31091;SDS011;67728;53.122;12.776;2024-03-17T05:47:32;914.47;;;422.93;;
31091;SDS011;67728;53.122;12.776;2024-03-17T05:49:03;909.30;;;418.77;;
31091;SDS011;67728;53.122;12.776;2024-03-17T05:50:36;915.97;;;420.23;;
31091;SDS011;67728;53.122;12.776;2024-03-17T05:52:07;909.13;;;423.17;;
31091;SDS011;67728;53.122;12.776;2024-03-17T05:53:40;906.57;;;407.90;;
31091;SDS011;67728;53.122;12.776;2024-03-17T05:55:10;916.67;;;421.93;;
31091;SDS011;67728;53.122;12.776;2024-03-17T05:56:44;916.30;;;402.57;;
31091;SDS011;67728;53.122;12.776;2024-03-17T05:58:14;902.33;;;396.43;;
31091;SDS011;67728;53.122;12.776;2024-03-17T05:59:46;912.50;;;387.13;;
31091;SDS011;67728;53.122;12.776;2024-03-17T06:01:16;900.87;;;386.67;;
31091;SDS011;67728;53.122;12.776;2024-03-17T06:02:49;904.37;;;399.77;;
31091;SDS011;67728;53.122;12.776;2024-03-17T06:04:20;900.27;;;385.13;;
31091;SDS011;67728;53.122;12.776;2024-03-17T06:05:51;896.37;;;376.53;;
31091;SDS011;67728;53.122;12.776;2024-03-17T06:07:23;900.20;;;384.57;;
31091;SDS011;67728;53.122;12.776;2024-03-17T06:08:55;909.30;;;390.83;;
31091;SDS011;67728;53.122;12.776;2024-03-17T06:10:26;911.67;;;396.87;;
31091;SDS011;67728;53.122;12.776;2024-03-17T06:11:58;900.77;;;394.37;;
31091;SDS011;67728;53.122;12.776;2024-03-17T06:13:30;909.07;;;397.73;;
31091;SDS011;67728;53.122;12.776;2024-03-17T06:15:02;910.00;;;397.20;;
31091;SDS011;67728;53.122;12.776;2024-03-17T06:16:34;905.47;;;388.27;;
31091;SDS011;67728;53.122;12.776;2024-03-17T06:18:04;892.40;;;380.00;;
31091;SDS011;67728;53.122;12.776;2024-03-17T06:19:39;903.23;;;381.17;;
31091;SDS011;67728;53.122;12.776;2024-03-17T06:21:09;900.10;;;385.33;;
31091;SDS011;67728;53.122;12.776;2024-03-17T06:22:41;920.90;;;407.57;;
31091;SDS011;67728;53.122;12.776;2024-03-17T06:24:11;904.33;;;399.60;;
31091;SDS011;67728;53.122;12.776;2024-03-17T06:25:43;905.53;;;400.47;;
31091;SDS011;67728;53.122;12.776;2024-03-17T06:27:16;901.87;;;394.80;;
31091;SDS011;67728;53.122;12.776;2024-03-17T06:28:48;923.20;;;404.93;;
31091;SDS011;67728;53.122;12.776;2024-03-17T06:30:20;912.27;;;415.53;;
31091;SDS011;67728;53.122;12.776;2024-03-17T06:31:51;905.43;;;408.27;;
31091;SDS011;67728;53.122;12.776;2024-03-17T06:33:23;906.77;;;404.83;;
31091;SDS011;67728;53.122;12.776;2024-03-17T06:34:53;918.97;;;408.47;;
31091;SDS011;67728;53.122;12.776;2024-03-17T06:36:25;899.20;;;399.13;;
31091;SDS011;67728;53.122;12.776;2024-03-17T06:37:58;901.50;;;397.67;;
31091;SDS011;67728;53.122;12.776;2024-03-17T06:39:30;900.00;;;386.23;;
31091;SDS011;67728;53.122;12.776;2024-03-17T06:41:01;908.33;;;417.07;;
31091;SDS011;67728;53.122;12.776;2024-03-17T06:42:34;918.10;;;426.40;;
31091;SDS011;67728;53.122;12.776;2024-03-17T06:44:04;906.37;;;411.67;;
31091;SDS011;67728;53.122;12.776;2024-03-17T06:45:36;911.93;;;415.67;;
31091;SDS011;67728;53.122;12.776;2024-03-17T06:47:07;921.27;;;438.37;;
31091;SDS011;67728;53.122;12.776;2024-03-17T06:48:39;919.63;;;430.63;;
31091;SDS011;67728;53.122;12.776;2024-03-17T06:50:10;918.53;;;433.10;;
31091;SDS011;67728;53.122;12.776;2024-03-17T06:51:42;930.57;;;426.30;;
31091;SDS011;67728;53.122;12.776;2024-03-17T06:53:14;917.63;;;433.53;;
31091;SDS011;67728;53.122;12.776;2024-03-17T06:54:46;915.50;;;414.80;;
31091;SDS011;67728;53.122;12.776;2024-03-17T06:56:19;903.70;;;402.43;;
31091;SDS011;67728;53.122;12.776;2024-03-17T06:57:52;905.73;;;405.33;;
31091;SDS011;67728;53.122;12.776;2024-03-17T06:59:23;901.50;;;402.60;;
31091;SDS011;67728;53.122;12.776;2024-03-17T07:00:55;920.37;;;409.47;;
31091;SDS011;67728;53.122;12.776;2024-03-17T07:02:26;913.33;;;411.73;;
31091;SDS011;67728;53.122;12.776;2024-03-17T07:03:58;910.83;;;427.13;;
31091;SDS011;67728;53.122;12.776;2024-03-17T07:05:29;902.37;;;406.33;;
31091;SDS011;67728;53.122;12.776;2024-03-17T07:07:03;919.27;;;401.30;;
31091;SDS011;67728;53.122;12.776;2024-03-17T07:08:33;914.47;;;413.87;;
31091;SDS011;67728;53.122;12.776;2024-03-17T07:10:05;902.17;;;413.50;;
31091;SDS011;67728;53.122;12.776;2024-03-17T07:11:36;907.30;;;419.23;;
31091;SDS011;67728;53.122;12.776;2024-03-17T07:13:09;912.50;;;412.47;;
31091;SDS011;67728;53.122;12.776;2024-03-17T07:14:39;902.03;;;417.30;;
31091;SDS011;67728;53.122;12.776;2024-03-17T07:16:11;906.00;;;426.97;;
31091;SDS011;67728;53.122;12.776;2024-03-17T07:17:42;914.53;;;416.13;;
31091;SDS011;67728;53.122;12.776;2024-03-17T07:19:13;911.23;;;426.07;;
31091;SDS011;67728;53.122;12.776;2024-03-17T07:20:44;926.37;;;427.57;;
31091;SDS011;67728;53.122;12.776;2024-03-17T07:22:17;913.93;;;423.60;;
31091;SDS011;67728;53.122;12.776;2024-03-17T07:23:48;925.10;;;420.20;;
31091;SDS011;67728;53.122;12.776;2024-03-17T07:25:20;915.90;;;414.63;;
31091;SDS011;67728;53.122;12.776;2024-03-17T07:26:50;917.33;;;427.47;;
31091;SDS011;67728;53.122;12.776;2024-03-17T07:28:23;908.57;;;427.47;;
31091;SDS011;67728;53.122;12.776;2024-03-17T07:29:54;930.27;;;445.33;;
31091;SDS011;67728;53.122;12.776;2024-03-17T07:31:26;917.50;;;440.67;;
31091;SDS011;67728;53.122;12.776;2024-03-17T07:32:57;933.73;;;441.40;;
31091;SDS011;67728;53.122;12.776;2024-03-17T07:34:30;955.30;;;455.73;;
31091;SDS011;67728;53.122;12.776;2024-03-17T07:36:01;937.60;;;449.03;;
31091;SDS011;67728;53.122;12.776;2024-03-17T07:37:33;915.23;;;451.10;;
31091;SDS011;67728;53.122;12.776;2024-03-17T07:39:03;919.77;;;448.77;;
31091;SDS011;67728;53.122;12.776;2024-03-17T07:40:37;926.03;;;455.50;;
31091;SDS011;67728;53.122;12.776;2024-03-17T07:42:07;922.20;;;458.43;;
31091;SDS011;67728;53.122;12.776;2024-03-17T07:43:40;949.17;;;469.50;;
31091;SDS011;67728;53.122;12.776;2024-03-17T07:45:12;945.43;;;462.00;;
31091;SDS011;67728;53.122;12.776;2024-03-17T07:46:43;928.27;;;466.77;;
31091;SDS011;67728;53.122;12.776;2024-03-17T07:48:14;922.30;;;469.37;;
31091;SDS011;67728;53.122;12.776;2024-03-17T07:49:46;923.23;;;472.73;;
31091;SDS011;67728;53.122;12.776;2024-03-17T07:51:17;942.77;;;469.07;;
31091;SDS011;67728;53.122;12.776;2024-03-17T07:52:48;917.00;;;463.43;;
31091;SDS011;67728;53.122;12.776;2024-03-17T07:54:20;916.07;;;454.33;;
31091;SDS011;67728;53.122;12.776;2024-03-17T07:55:58;919.37;;;466.33;;
31091;SDS011;67728;53.122;12.776;2024-03-17T07:57:30;938.47;;;472.77;;
31091;SDS011;67728;53.122;12.776;2024-03-17T07:59:02;936.47;;;481.60;;
31091;SDS011;67728;53.122;12.776;2024-03-17T08:00:41;922.93;;;474.47;;
31091;SDS011;67728;53.122;12.776;2024-03-17T08:02:11;923.83;;;469.80;;
31091;SDS011;67728;53.122;12.776;2024-03-17T08:03:44;922.67;;;472.73;;
31091;SDS011;67728;53.122;12.776;2024-03-17T08:05:16;933.50;;;471.93;;
31091;SDS011;67728;53.122;12.776;2024-03-17T08:06:48;925.63;;;477.20;;
31091;SDS011;67728;53.122;12.776;2024-03-17T08:08:19;921.97;;;468.67;;
31091;SDS011;67728;53.122;12.776;2024-03-17T08:09:50;998.17;;;483.50;;
31091;SDS011;67728;53.122;12.776;2024-03-17T08:11:22;929.30;;;478.00;;
31091;SDS011;67728;53.122;12.776;2024-03-17T08:12:52;937.93;;;500.10;;
31091;SDS011;67728;53.122;12.776;2024-03-17T08:14:25;943.37;;;493.70;;
31091;SDS011;67728;53.122;12.776;2024-03-17T08:15:57;954.17;;;506.77;;
31091;SDS011;67728;53.122;12.776;2024-03-17T08:17:29;957.60;;;506.80;;
31091;SDS011;67728;53.122;12.776;2024-03-17T08:19:01;939.13;;;493.40;;
31091;SDS011;67728;53.122;12.776;2024-03-17T08:20:31;937.67;;;494.70;;
31091;SDS011;67728;53.122;12.776;2024-03-17T08:22:03;936.80;;;504.33;;
31091;SDS011;67728;53.122;12.776;2024-03-17T08:23:35;969.23;;;511.77;;
31091;SDS011;67728;53.122;12.776;2024-03-17T08:25:11;936.03;;;506.83;;
31091;SDS011;67728;53.122;12.776;2024-03-17T08:26:43;936.47;;;501.70;;
31091;SDS011;67728;53.122;12.776;2024-03-17T08:28:15;1008.87;;;509.73;;
31091;SDS011;67728;53.122;12.776;2024-03-17T08:29:48;981.63;;;517.17;;
31091;SDS011;67728;53.122;12.776;2024-03-17T08:31:18;943.80;;;503.03;;
31091;SDS011;67728;53.122;12.776;2024-03-17T08:32:50;952.13;;;523.63;;